aviador You're here:

KQDG Decoded Metar

ADANA/INCIRLIK in USA-MIL
Report Time2018-02-25 10:56:00
UTC Time2018-02-25 11:36:31
Flight Rules vfr VFR
Wind240° at 07 kt
W.Rank240° ranks 16
Current wind is above 240° avg. (6.4)
Visibility9999 m
Phenomena:N/A
Clouds:N/A
Expected CloudBase > 1,600 ft AGL from Temp-Dew spread
CeilingNone
Temp-4°C (ISA -19)
Dew Point-8°C (74% RH)
AAT-9.4°C
QNH1026 hPa
Density Alt-2,441 ft
Elevation240 ft
Report Wrong Elevation
Raw Report
METAR KQDG 251056Z AUTO 24007KT 9999 CLR M04/M08 A3030 RMK AO2 SLP263
T10451085 PWINO FZRANO $=

Extra information for KQDG:More info

Metar Taf Metar & Taf Last 4 Metars F.Rules Stats Wind Profile Meteogram Temp Stats Airport Information Weather charts Add Link Nearby VenuesMetar ALERT Operation Metar Decoded Social comments